sensor_id;sensor_type;location;lat;lon;timestamp;temperature;humidity
70336;SHT31;57756;47.408;18.940;2023-06-10T00:01:41;17.97;99.99
70336;SHT31;57756;47.408;18.940;2023-06-10T00:04:06;17.97;99.99
70336;SHT31;57756;47.408;18.940;2023-06-10T00:06:32;18.00;99.99
70336;SHT31;57756;47.408;18.940;2023-06-10T00:09:04;18.00;99.99
70336;SHT31;57756;47.408;18.940;2023-06-10T00:11:33;17.99;99.99
70336;SHT31;57756;47.408;18.940;2023-06-10T00:13:59;18.01;99.99
70336;SHT31;57756;47.408;18.940;2023-06-10T00:16:25;18.00;99.99
70336;SHT31;57756;47.408;18.940;2023-06-10T00:18:50;17.99;99.99
70336;SHT31;57756;47.408;18.940;2023-06-10T00:21:21;17.99;99.99
70336;SHT31;57756;47.408;18.940;2023-06-10T00:23:47;17.99;99.99
70336;SHT31;57756;47.408;18.940;2023-06-10T00:26:13;17.97;99.99
70336;SHT31;57756;47.408;18.940;2023-06-10T00:28:38;17.96;99.99
70336;SHT31;57756;47.408;18.940;2023-06-10T00:31:04;17.97;99.99
70336;SHT31;57756;47.408;18.940;2023-06-10T00:33:30;17.96;99.99
70336;SHT31;57756;47.408;18.940;2023-06-10T00:35:55;17.97;99.99
70336;SHT31;57756;47.408;18.940;2023-06-10T00:38:21;17.96;99.99
70336;SHT31;57756;47.408;18.940;2023-06-10T00:40:46;17.96;99.99
70336;SHT31;57756;47.408;18.940;2023-06-10T00:43:12;17.97;99.99
70336;SHT31;57756;47.408;18.940;2023-06-10T00:45:37;17.96;99.99
70336;SHT31;57756;47.408;18.940;2023-06-10T00:48:04;17.96;99.99
70336;SHT31;57756;47.408;18.940;2023-06-10T00:50:30;17.99;99.99
70336;SHT31;57756;47.408;18.940;2023-06-10T00:52:58;17.96;99.99
70336;SHT31;57756;47.408;18.940;2023-06-10T00:55:25;17.99;99.99
70336;SHT31;57756;47.408;18.940;2023-06-10T00:57:53;17.99;99.99
70336;SHT31;57756;47.408;18.940;2023-06-10T01:00:18;17.94;99.99
70336;SHT31;57756;47.408;18.940;2023-06-10T01:02:44;17.97;99.99
70336;SHT31;57756;47.408;18.940;2023-06-10T01:05:10;17.99;99.99
70336;SHT31;57756;47.408;18.940;2023-06-10T01:10:38;17.97;99.99
70336;SHT31;57756;47.408;18.940;2023-06-10T01:13:10;17.99;99.99
70336;SHT31;57756;47.408;18.940;2023-06-10T01:15:37;18.01;99.99
70336;SHT31;57756;47.408;18.940;2023-06-10T01:18:05;18.03;99.99
70336;SHT31;57756;47.408;18.940;2023-06-10T01:20:34;18.00;99.99
70336;SHT31;57756;47.408;18.940;2023-06-10T01:23:02;18.01;99.99
70336;SHT31;57756;47.408;18.940;2023-06-10T01:25:30;18.01;99.99
70336;SHT31;57756;47.408;18.940;2023-06-10T01:33:17;18.00;99.99
70336;SHT31;57756;47.408;18.940;2023-06-10T01:35:44;18.03;99.99
70336;SHT31;57756;47.408;18.940;2023-06-10T01:38:12;18.03;99.99
70336;SHT31;57756;47.408;18.940;2023-06-10T01:40:39;18.04;99.99
70336;SHT31;57756;47.408;18.940;2023-06-10T01:43:05;18.06;99.99
70336;SHT31;57756;47.408;18.940;2023-06-10T01:45:30;18.06;99.99
70336;SHT31;57756;47.408;18.940;2023-06-10T01:47:56;18.01;99.99
70336;SHT31;57756;47.408;18.940;2023-06-10T01:50:22;17.99;99.99
70336;SHT31;57756;47.408;18.940;2023-06-10T01:52:47;18.00;99.99
70336;SHT31;57756;47.408;18.940;2023-06-10T01:55:13;17.99;99.99
70336;SHT31;57756;47.408;18.940;2023-06-10T01:57:38;17.99;99.99
70336;SHT31;57756;47.408;18.940;2023-06-10T02:00:04;18.03;99.99
70336;SHT31;57756;47.408;18.940;2023-06-10T02:02:30;18.00;99.99
70336;SHT31;57756;47.408;18.940;2023-06-10T02:04:56;18.00;99.99
70336;SHT31;57756;47.408;18.940;2023-06-10T02:07:22;18.01;99.99
70336;SHT31;57756;47.408;18.940;2023-06-10T02:09:47;18.08;99.99
70336;SHT31;57756;47.408;18.940;2023-06-10T02:12:13;18.04;99.99
70336;SHT31;57756;47.408;18.940;2023-06-10T02:14:38;18.03;99.99
70336;SHT31;57756;47.408;18.940;2023-06-10T02:17:04;18.03;99.99
70336;SHT31;57756;47.408;18.940;2023-06-10T02:19:29;18.01;99.99
70336;SHT31;57756;47.408;18.940;2023-06-10T02:21:56;18.03;99.99
70336;SHT31;57756;47.408;18.940;2023-06-10T02:24:21;18.01;99.99
70336;SHT31;57756;47.408;18.940;2023-06-10T02:26:47;18.01;99.99
70336;SHT31;57756;47.408;18.940;2023-06-10T02:29:13;18.06;99.99
70336;SHT31;57756;47.408;18.940;2023-06-10T02:31:39;18.04;99.99
70336;SHT31;57756;47.408;18.940;2023-06-10T02:34:04;18.04;99.99
70336;SHT31;57756;47.408;18.940;2023-06-10T02:36:30;18.06;99.99
70336;SHT31;57756;47.408;18.940;2023-06-10T02:38:56;18.03;99.99
70336;SHT31;57756;47.408;18.940;2023-06-10T02:41:21;17.96;99.99
70336;SHT31;57756;47.408;18.940;2023-06-10T02:43:50;17.97;99.99
70336;SHT31;57756;47.408;18.940;2023-06-10T02:46:15;17.96;99.99
70336;SHT31;57756;47.408;18.940;2023-06-10T02:48:42;17.91;99.99
70336;SHT31;57756;47.408;18.940;2023-06-10T02:51:09;17.90;99.99
70336;SHT31;57756;47.408;18.940;2023-06-10T02:53:34;17.89;99.99
70336;SHT31;57756;47.408;18.940;2023-06-10T02:56:00;17.90;99.99
70336;SHT31;57756;47.408;18.940;2023-06-10T02:58:25;17.89;99.99
70336;SHT31;57756;47.408;18.940;2023-06-10T03:00:51;17.87;99.99
70336;SHT31;57756;47.408;18.940;2023-06-10T03:03:17;17.87;99.99
70336;SHT31;57756;47.408;18.940;2023-06-10T03:05:42;17.86;99.99
70336;SHT31;57756;47.408;18.940;2023-06-10T03:08:08;17.86;99.99
70336;SHT31;57756;47.408;18.940;2023-06-10T03:10:33;17.85;99.99
70336;SHT31;57756;47.408;18.940;2023-06-10T03:12:58;17.85;99.99
70336;SHT31;57756;47.408;18.940;2023-06-10T03:15:24;17.85;99.99
70336;SHT31;57756;47.408;18.940;2023-06-10T03:17:50;17.78;99.99
70336;SHT31;57756;47.408;18.940;2023-06-10T03:20:15;17.82;99.99
70336;SHT31;57756;47.408;18.940;2023-06-10T03:22:42;17.82;99.99
70336;SHT31;57756;47.408;18.940;2023-06-10T03:25:08;17.87;99.99
70336;SHT31;57756;47.408;18.940;2023-06-10T03:27:42;17.87;99.99
70336;SHT31;57756;47.408;18.940;2023-06-10T03:30:08;17.86;99.99
70336;SHT31;57756;47.408;18.940;2023-06-10T03:32:34;17.90;99.99
70336;SHT31;57756;47.408;18.940;2023-06-10T03:35:00;17.93;99.99
70336;SHT31;57756;47.408;18.940;2023-06-10T03:37:26;17.89;99.99
70336;SHT31;57756;47.408;18.940;2023-06-10T03:39:51;17.89;99.99
70336;SHT31;57756;47.408;18.940;2023-06-10T03:42:17;17.94;99.99
70336;SHT31;57756;47.408;18.940;2023-06-10T03:44:42;17.96;99.99
70336;SHT31;57756;47.408;18.940;2023-06-10T03:47:08;17.94;99.99
70336;SHT31;57756;47.408;18.940;2023-06-10T03:49:34;17.96;99.99
70336;SHT31;57756;47.408;18.940;2023-06-10T03:52:01;18.00;99.99
70336;SHT31;57756;47.408;18.940;2023-06-10T03:54:27;17.97;99.99
70336;SHT31;57756;47.408;18.940;2023-06-10T03:56:53;18.00;99.99
70336;SHT31;57756;47.408;18.940;2023-06-10T03:59:18;17.99;99.99
70336;SHT31;57756;47.408;18.940;2023-06-10T04:01:43;17.99;99.99
70336;SHT31;57756;47.408;18.940;2023-06-10T04:04:09;18.01;99.99
70336;SHT31;57756;47.408;18.940;2023-06-10T04:06:35;17.99;99.99
70336;SHT31;57756;47.408;18.940;2023-06-10T04:09:02;18.04;99.99
70336;SHT31;57756;47.408;18.940;2023-06-10T04:11:28;18.08;99.99
70336;SHT31;57756;47.408;18.940;2023-06-10T04:13:53;18.18;99.99
70336;SHT31;57756;47.408;18.940;2023-06-10T04:16:20;18.30;99.99
70336;SHT31;57756;47.408;18.940;2023-06-10T04:18:46;18.44;99.99
70336;SHT31;57756;47.408;18.940;2023-06-10T04:21:12;18.55;99.99
70336;SHT31;57756;47.408;18.940;2023-06-10T04:23:37;18.62;99.99
70336;SHT31;57756;47.408;18.940;2023-06-10T04:26:04;18.77;99.99
70336;SHT31;57756;47.408;18.940;2023-06-10T04:28:31;18.91;99.99
70336;SHT31;57756;47.408;18.940;2023-06-10T04:30:56;19.04;99.99
70336;SHT31;57756;47.408;18.940;2023-06-10T04:33:22;19.23;99.54
70336;SHT31;57756;47.408;18.940;2023-06-10T04:35:47;19.40;99.78
70336;SHT31;57756;47.408;18.940;2023-06-10T04:38:13;19.58;99.32
70336;SHT31;57756;47.408;18.940;2023-06-10T04:40:39;19.75;98.88
70336;SHT31;57756;47.408;18.940;2023-06-10T04:43:05;19.88;98.01
70336;SHT31;57756;47.408;18.940;2023-06-10T04:45:30;19.99;97.66
70336;SHT31;57756;47.408;18.940;2023-06-10T04:47:56;20.13;96.94
70336;SHT31;57756;47.408;18.940;2023-06-10T04:50:23;20.34;97.25
70336;SHT31;57756;47.408;18.940;2023-06-10T04:52:48;20.54;96.37
70336;SHT31;57756;47.408;18.940;2023-06-10T04:55:15;20.74;96.11
70336;SHT31;57756;47.408;18.940;2023-06-10T04:57:41;20.94;94.50
70336;SHT31;57756;47.408;18.940;2023-06-10T05:00:07;21.20;93.50
70336;SHT31;57756;47.408;18.940;2023-06-10T05:02:33;21.19;91.57
70336;SHT31;57756;47.408;18.940;2023-06-10T05:04:59;21.35;93.06
70336;SHT31;57756;47.408;18.940;2023-06-10T05:07:25;21.51;92.27
70336;SHT31;57756;47.408;18.940;2023-06-10T05:09:50;21.39;91.40
70336;SHT31;57756;47.408;18.940;2023-06-10T05:12:16;21.58;91.46
70336;SHT31;57756;47.408;18.940;2023-06-10T05:14:41;21.64;89.75
70336;SHT31;57756;47.408;18.940;2023-06-10T05:17:06;21.91;90.04
70336;SHT31;57756;47.408;18.940;2023-06-10T05:19:32;21.81;89.88
70336;SHT31;57756;47.408;18.940;2023-06-10T05:21:58;21.90;89.18
70336;SHT31;57756;47.408;18.940;2023-06-10T05:24:23;21.94;88.68
70336;SHT31;57756;47.408;18.940;2023-06-10T05:26:49;21.93;87.93
70336;SHT31;57756;47.408;18.940;2023-06-10T05:29:14;21.88;87.55
70336;SHT31;57756;47.408;18.940;2023-06-10T05:31:41;21.95;87.97
70336;SHT31;57756;47.408;18.940;2023-06-10T05:34:06;22.19;87.67
70336;SHT31;57756;47.408;18.940;2023-06-10T05:36:32;22.28;86.65
70336;SHT31;57756;47.408;18.940;2023-06-10T05:38:58;22.52;86.53
70336;SHT31;57756;47.408;18.940;2023-06-10T05:41:23;22.59;85.37
70336;SHT31;57756;47.408;18.940;2023-06-10T05:43:49;22.41;86.08
70336;SHT31;57756;47.408;18.940;2023-06-10T05:46:14;22.62;85.73
70336;SHT31;57756;47.408;18.940;2023-06-10T05:48:40;22.87;85.41
70336;SHT31;57756;47.408;18.940;2023-06-10T05:51:05;23.11;83.75
70336;SHT31;57756;47.408;18.940;2023-06-10T05:53:31;23.14;85.98
70336;SHT31;57756;47.408;18.940;2023-06-10T05:55:57;23.18;84.13
70336;SHT31;57756;47.408;18.940;2023-06-10T05:58:23;23.25;84.91
70336;SHT31;57756;47.408;18.940;2023-06-10T06:00:49;23.65;82.98
70336;SHT31;57756;47.408;18.940;2023-06-10T06:03:15;23.62;83.28
70336;SHT31;57756;47.408;18.940;2023-06-10T06:05:40;23.66;83.85
70336;SHT31;57756;47.408;18.940;2023-06-10T06:08:06;24.00;81.86
70336;SHT31;57756;47.408;18.940;2023-06-10T06:10:32;24.25;81.52
70336;SHT31;57756;47.408;18.940;2023-06-10T06:12:57;24.21;81.70
70336;SHT31;57756;47.408;18.940;2023-06-10T06:15:23;24.41;80.38
70336;SHT31;57756;47.408;18.940;2023-06-10T06:17:48;23.79;80.57
70336;SHT31;57756;47.408;18.940;2023-06-10T06:20:14;23.79;80.06
70336;SHT31;57756;47.408;18.940;2023-06-10T06:22:39;23.29;80.67
70336;SHT31;57756;47.408;18.940;2023-06-10T06:25:05;23.37;81.34
70336;SHT31;57756;47.408;18.940;2023-06-10T06:27:31;23.07;81.70
70336;SHT31;57756;47.408;18.940;2023-06-10T06:29:57;23.48;81.73
70336;SHT31;57756;47.408;18.940;2023-06-10T06:32:22;23.82;80.12
70336;SHT31;57756;47.408;18.940;2023-06-10T06:34:49;24.40;78.70
70336;SHT31;57756;47.408;18.940;2023-06-10T06:37:22;24.76;78.09
70336;SHT31;57756;47.408;18.940;2023-06-10T06:39:50;24.69;79.81
70336;SHT31;57756;47.408;18.940;2023-06-10T06:42:15;25.00;76.13
70336;SHT31;57756;47.408;18.940;2023-06-10T06:44:42;24.95;77.81
70336;SHT31;57756;47.408;18.940;2023-06-10T06:47:07;24.90;77.42
70336;SHT31;57756;47.408;18.940;2023-06-10T06:49:33;25.30;77.10
70336;SHT31;57756;47.408;18.940;2023-06-10T06:51:58;25.43;75.13
70336;SHT31;57756;47.408;18.940;2023-06-10T06:54:23;25.10;75.02
70336;SHT31;57756;47.408;18.940;2023-06-10T06:56:49;25.41;75.40
70336;SHT31;57756;47.408;18.940;2023-06-10T06:59:15;25.70;75.45
70336;SHT31;57756;47.408;18.940;2023-06-10T07:01:42;25.98;75.07
70336;SHT31;57756;47.408;18.940;2023-06-10T07:04:08;26.12;76.90
70336;SHT31;57756;47.408;18.940;2023-06-10T07:06:33;26.26;72.65
70336;SHT31;57756;47.408;18.940;2023-06-10T07:08:58;26.01;72.39
70336;SHT31;57756;47.408;18.940;2023-06-10T07:11:24;25.85;73.39
70336;SHT31;57756;47.408;18.940;2023-06-10T07:13:50;25.50;74.07
70336;SHT31;57756;47.408;18.940;2023-06-10T07:16:15;25.34;75.04
70336;SHT31;57756;47.408;18.940;2023-06-10T07:18:41;25.16;77.81
70336;SHT31;57756;47.408;18.940;2023-06-10T07:21:06;25.07;76.87
70336;SHT31;57756;47.408;18.940;2023-06-10T07:23:32;24.68;77.52
70336;SHT31;57756;47.408;18.940;2023-06-10T07:25:57;24.67;77.07
70336;SHT31;57756;47.408;18.940;2023-06-10T07:28:23;24.73;75.86
70336;SHT31;57756;47.408;18.940;2023-06-10T07:30:48;25.02;76.41
70336;SHT31;57756;47.408;18.940;2023-06-10T07:33:14;25.12;76.35
70336;SHT31;57756;47.408;18.940;2023-06-10T07:35:39;25.43;73.70
70336;SHT31;57756;47.408;18.940;2023-06-10T07:38:05;24.92;75.43
70336;SHT31;57756;47.408;18.940;2023-06-10T07:40:30;24.59;75.98
70336;SHT31;57756;47.408;18.940;2023-06-10T07:42:56;24.35;77.70
70336;SHT31;57756;47.408;18.940;2023-06-10T07:45:21;25.16;78.27
70336;SHT31;57756;47.408;18.940;2023-06-10T07:47:47;26.06;76.20
70336;SHT31;57756;47.408;18.940;2023-06-10T07:50:12;26.44;73.46
70336;SHT31;57756;47.408;18.940;2023-06-10T07:52:38;26.74;73.95
70336;SHT31;57756;47.408;18.940;2023-06-10T07:55:04;26.90;74.03
70336;SHT31;57756;47.408;18.940;2023-06-10T07:57:30;26.74;72.33
70336;SHT31;57756;47.408;18.940;2023-06-10T07:59:57;26.46;71.66
70336;SHT31;57756;47.408;18.940;2023-06-10T08:02:25;26.95;73.12
70336;SHT31;57756;47.408;18.940;2023-06-10T08:04:51;26.44;73.99
70336;SHT31;57756;47.408;18.940;2023-06-10T08:07:16;26.54;71.26
70336;SHT31;57756;47.408;18.940;2023-06-10T08:09:43;27.23;72.30
70336;SHT31;57756;47.408;18.940;2023-06-10T08:12:08;27.60;70.52
70336;SHT31;57756;47.408;18.940;2023-06-10T08:14:34;27.77;68.62
70336;SHT31;57756;47.408;18.940;2023-06-10T08:17:00;28.14;68.85
70336;SHT31;57756;47.408;18.940;2023-06-10T08:19:25;28.51;67.94
70336;SHT31;57756;47.408;18.940;2023-06-10T08:21:51;27.96;67.77
70336;SHT31;57756;47.408;18.940;2023-06-10T08:24:16;27.90;68.26
70336;SHT31;57756;47.408;18.940;2023-06-10T08:26:43;27.96;68.12
70336;SHT31;57756;47.408;18.940;2023-06-10T08:29:11;28.34;68.53
70336;SHT31;57756;47.408;18.940;2023-06-10T08:31:36;28.99;69.95
70336;SHT31;57756;47.408;18.940;2023-06-10T08:34:02;28.59;66.40
70336;SHT31;57756;47.408;18.940;2023-06-10T08:36:27;28.49;67.25
70336;SHT31;57756;47.408;18.940;2023-06-10T08:38:53;27.83;66.37
70336;SHT31;57756;47.408;18.940;2023-06-10T08:41:19;28.46;67.79
70336;SHT31;57756;47.408;18.940;2023-06-10T08:43:53;28.56;65.87
70336;SHT31;57756;47.408;18.940;2023-06-10T08:46:20;28.67;65.04
70336;SHT31;57756;47.408;18.940;2023-06-10T08:48:47;28.69;66.31
70336;SHT31;57756;47.408;18.940;2023-06-10T08:51:15;28.46;66.02
70336;SHT31;57756;47.408;18.940;2023-06-10T08:53:49;28.76;64.85
70336;SHT31;57756;47.408;18.940;2023-06-10T08:56:16;27.98;63.48
70336;SHT31;57756;47.408;18.940;2023-06-10T08:58:41;27.83;64.81
70336;SHT31;57756;47.408;18.940;2023-06-10T09:01:07;28.76;65.19
70336;SHT31;57756;47.408;18.940;2023-06-10T09:03:36;28.80;64.23
70336;SHT31;57756;47.408;18.940;2023-06-10T09:06:04;28.80;63.43
70336;SHT31;57756;47.408;18.940;2023-06-10T09:08:30;29.41;64.03
70336;SHT31;57756;47.408;18.940;2023-06-10T09:10:57;28.97;60.93
70336;SHT31;57756;47.408;18.940;2023-06-10T09:13:22;28.42;63.40
70336;SHT31;57756;47.408;18.940;2023-06-10T09:15:48;28.76;62.82
70336;SHT31;57756;47.408;18.940;2023-06-10T09:18:14;29.35;63.95
70336;SHT31;57756;47.408;18.940;2023-06-10T09:20:42;29.25;63.16
70336;SHT31;57756;47.408;18.940;2023-06-10T09:23:08;29.92;61.21
70336;SHT31;57756;47.408;18.940;2023-06-10T09:25:35;30.51;59.98
70336;SHT31;57756;47.408;18.940;2023-06-10T09:28:05;31.16;58.72
70336;SHT31;57756;47.408;18.940;2023-06-10T09:30:37;31.19;56.55
70336;SHT31;57756;47.408;18.940;2023-06-10T09:33:10;30.74;57.46
70336;SHT31;57756;47.408;18.940;2023-06-10T09:35:36;29.95;57.43
70336;SHT31;57756;47.408;18.940;2023-06-10T09:38:01;30.93;56.99
70336;SHT31;57756;47.408;18.940;2023-06-10T09:40:28;31.19;56.31
70336;SHT31;57756;47.408;18.940;2023-06-10T09:42:55;31.16;57.47
70336;SHT31;57756;47.408;18.940;2023-06-10T09:45:21;30.99;57.58
70336;SHT31;57756;47.408;18.940;2023-06-10T09:47:50;30.62;60.33
70336;SHT31;57756;47.408;18.940;2023-06-10T09:50:17;31.12;55.46
70336;SHT31;57756;47.408;18.940;2023-06-10T09:52:42;30.99;55.57
70336;SHT31;57756;47.408;18.940;2023-06-10T09:55:09;31.54;55.47
70336;SHT31;57756;47.408;18.940;2023-06-10T09:57:36;32.21;56.24
70336;SHT31;57756;47.408;18.940;2023-06-10T10:00:05;31.38;57.56
70336;SHT31;57756;47.408;18.940;2023-06-10T10:02:31;30.79;55.05
70336;SHT31;57756;47.408;18.940;2023-06-10T10:05:02;31.96;54.87
70336;SHT31;57756;47.408;18.940;2023-06-10T10:07:29;31.84;55.99
70336;SHT31;57756;47.408;18.940;2023-06-10T10:09:54;32.32;55.57
70336;SHT31;57756;47.408;18.940;2023-06-10T10:12:20;30.28;57.49
70336;SHT31;57756;47.408;18.940;2023-06-10T10:14:46;29.65;59.77
70336;SHT31;57756;47.408;18.940;2023-06-10T10:17:14;29.07;62.22
70336;SHT31;57756;47.408;18.940;2023-06-10T10:19:45;29.61;59.79
70336;SHT31;57756;47.408;18.940;2023-06-10T10:22:17;30.35;58.82
70336;SHT31;57756;47.408;18.940;2023-06-10T10:24:52;30.61;58.21
70336;SHT31;57756;47.408;18.940;2023-06-10T10:27:24;31.94;53.54
70336;SHT31;57756;47.408;18.940;2023-06-10T10:29:52;32.50;53.73
70336;SHT31;57756;47.408;18.940;2023-06-10T10:32:21;32.36;54.83
70336;SHT31;57756;47.408;18.940;2023-06-10T10:35:05;30.91;56.20
70336;SHT31;57756;47.408;18.940;2023-06-10T10:37:32;30.79;58.76
70336;SHT31;57756;47.408;18.940;2023-06-10T10:39:59;29.12;61.20
70336;SHT31;57756;47.408;18.940;2023-06-10T10:42:25;29.07;62.52
70336;SHT31;57756;47.408;18.940;2023-06-10T10:44:51;29.99;62.70
70336;SHT31;57756;47.408;18.940;2023-06-10T10:47:21;29.78;61.99
70336;SHT31;57756;47.408;18.940;2023-06-10T10:49:48;30.35;58.99
70336;SHT31;57756;47.408;18.940;2023-06-10T10:52:15;29.76;61.18
70336;SHT31;57756;47.408;18.940;2023-06-10T10:54:44;29.39;62.85
70336;SHT31;57756;47.408;18.940;2023-06-10T10:57:21;28.21;64.39
70336;SHT31;57756;47.408;18.940;2023-06-10T10:59:54;28.53;63.58
70336;SHT31;57756;47.408;18.940;2023-06-10T11:02:42;28.41;64.13
70336;SHT31;57756;47.408;18.940;2023-06-10T11:05:14;27.57;65.77
70336;SHT31;57756;47.408;18.940;2023-06-10T11:07:41;27.36;64.60
70336;SHT31;57756;47.408;18.940;2023-06-10T11:10:16;27.22;66.32
70336;SHT31;57756;47.408;18.940;2023-06-10T11:15:17;27.59;66.91
70336;SHT31;57756;47.408;18.940;2023-06-10T11:18:28;27.47;64.67
70336;SHT31;57756;47.408;18.940;2023-06-10T11:20:58;28.02;65.33
70336;SHT31;57756;47.408;18.940;2023-06-10T11:26:18;28.72;65.89
70336;SHT31;57756;47.408;18.940;2023-06-10T11:31:24;28.80;62.33
70336;SHT31;57756;47.408;18.940;2023-06-10T11:33:54;28.82;60.31
70336;SHT31;57756;47.408;18.940;2023-06-10T11:36:23;28.82;59.06
70336;SHT31;57756;47.408;18.940;2023-06-10T11:38:53;28.99;61.42
70336;SHT31;57756;47.408;18.940;2023-06-10T11:41:20;29.76;60.52
70336;SHT31;57756;47.408;18.940;2023-06-10T11:43:46;30.18;58.46
70336;SHT31;57756;47.408;18.940;2023-06-10T11:46:13;30.69;58.36
70336;SHT31;57756;47.408;18.940;2023-06-10T11:48:39;30.64;57.54
70336;SHT31;57756;47.408;18.940;2023-06-10T11:51:06;30.41;58.32
70336;SHT31;57756;47.408;18.940;2023-06-10T11:53:32;31.06;60.74
70336;SHT31;57756;47.408;18.940;2023-06-10T11:55:57;30.78;57.08
70336;SHT31;57756;47.408;18.940;2023-06-10T11:58:23;31.34;56.18
70336;SHT31;57756;47.408;18.940;2023-06-10T12:00:50;31.36;55.09
70336;SHT31;57756;47.408;18.940;2023-06-10T12:03:17;31.48;55.78
70336;SHT31;57756;47.408;18.940;2023-06-10T12:05:58;30.40;58.08
70336;SHT31;57756;47.408;18.940;2023-06-10T12:08:24;29.68;58.61
70336;SHT31;57756;47.408;18.940;2023-06-10T12:10:50;29.49;60.29
70336;SHT31;57756;47.408;18.940;2023-06-10T12:13:16;29.51;59.73
70336;SHT31;57756;47.408;18.940;2023-06-10T12:15:45;29.63;58.36
70336;SHT31;57756;47.408;18.940;2023-06-10T12:18:20;29.48;59.94
70336;SHT31;57756;47.408;18.940;2023-06-10T12:20:46;28.86;58.84
70336;SHT31;57756;47.408;18.940;2023-06-10T12:23:12;29.31;60.23
70336;SHT31;57756;47.408;18.940;2023-06-10T12:25:38;28.96;59.67
70336;SHT31;57756;47.408;18.940;2023-06-10T12:28:05;29.20;63.15
70336;SHT31;57756;47.408;18.940;2023-06-10T12:30:31;28.35;62.91
70336;SHT31;57756;47.408;18.940;2023-06-10T12:32:58;28.41;63.94
70336;SHT31;57756;47.408;18.940;2023-06-10T12:35:25;27.97;64.09
70336;SHT31;57756;47.408;18.940;2023-06-10T12:38:09;28.49;65.13
70336;SHT31;57756;47.408;18.940;2023-06-10T12:40:38;28.46;63.31
70336;SHT31;57756;47.408;18.940;2023-06-10T12:43:06;28.94;64.10
70336;SHT31;57756;47.408;18.940;2023-06-10T12:45:36;28.94;62.03
70336;SHT31;57756;47.408;18.940;2023-06-10T12:48:19;29.25;63.43
70336;SHT31;57756;47.408;18.940;2023-06-10T12:50:55;29.59;62.57
70336;SHT31;57756;47.408;18.940;2023-06-10T12:53:21;29.54;60.53
70336;SHT31;57756;47.408;18.940;2023-06-10T12:55:51;30.09;60.83
70336;SHT31;57756;47.408;18.940;2023-06-10T12:58:20;30.07;58.19
70336;SHT31;57756;47.408;18.940;2023-06-10T13:00:45;29.97;58.03
70336;SHT31;57756;47.408;18.940;2023-06-10T13:03:11;29.27;60.86
70336;SHT31;57756;47.408;18.940;2023-06-10T13:05:37;28.80;60.66
70336;SHT31;57756;47.408;18.940;2023-06-10T13:08:07;28.87;59.36
70336;SHT31;57756;47.408;18.940;2023-06-10T13:10:35;28.80;61.49
70336;SHT31;57756;47.408;18.940;2023-06-10T13:13:01;28.65;58.77
70336;SHT31;57756;47.408;18.940;2023-06-10T13:15:27;28.67;61.15
70336;SHT31;57756;47.408;18.940;2023-06-10T13:17:53;28.52;59.93
70336;SHT31;57756;47.408;18.940;2023-06-10T13:20:19;27.84;61.04
70336;SHT31;57756;47.408;18.940;2023-06-10T13:22:45;28.36;61.59
70336;SHT31;57756;47.408;18.940;2023-06-10T13:25:11;28.21;59.61
70336;SHT31;57756;47.408;18.940;2023-06-10T13:27:37;28.19;59.95
70336;SHT31;57756;47.408;18.940;2023-06-10T13:30:07;28.41;57.78
70336;SHT31;57756;47.408;18.940;2023-06-10T13:32:33;28.73;58.67
70336;SHT31;57756;47.408;18.940;2023-06-10T13:34:59;28.93;56.83
70336;SHT31;57756;47.408;18.940;2023-06-10T13:37:24;29.08;56.87
70336;SHT31;57756;47.408;18.940;2023-06-10T13:39:49;29.37;56.22
70336;SHT31;57756;47.408;18.940;2023-06-10T13:42:19;29.93;60.67
70336;SHT31;57756;47.408;18.940;2023-06-10T13:44:45;30.09;58.18
70336;SHT31;57756;47.408;18.940;2023-06-10T13:47:13;29.76;57.02
70336;SHT31;57756;47.408;18.940;2023-06-10T13:49:38;29.59;58.47
70336;SHT31;57756;47.408;18.940;2023-06-10T13:52:04;29.62;60.16
70336;SHT31;57756;47.408;18.940;2023-06-10T13:54:30;29.41;61.19
70336;SHT31;57756;47.408;18.940;2023-06-10T13:56:55;29.42;62.20
70336;SHT31;57756;47.408;18.940;2023-06-10T13:59:21;29.37;60.72
70336;SHT31;57756;47.408;18.940;2023-06-10T14:01:47;29.01;60.45
70336;SHT31;57756;47.408;18.940;2023-06-10T14:04:12;27.97;62.37
70336;SHT31;57756;47.408;18.940;2023-06-10T14:06:38;27.96;64.39
70336;SHT31;57756;47.408;18.940;2023-06-10T14:09:03;27.88;64.70
70336;SHT31;57756;47.408;18.940;2023-06-10T14:11:30;27.45;65.25
70336;SHT31;57756;47.408;18.940;2023-06-10T14:13:55;27.31;67.40
70336;SHT31;57756;47.408;18.940;2023-06-10T14:16:24;26.84;68.12
70336;SHT31;57756;47.408;18.940;2023-06-10T14:18:50;26.68;67.88
70336;SHT31;57756;47.408;18.940;2023-06-10T14:21:16;26.68;67.47
70336;SHT31;57756;47.408;18.940;2023-06-10T14:23:42;26.91;67.87
70336;SHT31;57756;47.408;18.940;2023-06-10T14:26:09;26.70;67.14
70336;SHT31;57756;47.408;18.940;2023-06-10T14:28:35;26.46;66.85
70336;SHT31;57756;47.408;18.940;2023-06-10T14:31:00;26.51;67.83
70336;SHT31;57756;47.408;18.940;2023-06-10T14:33:26;26.15;68.39
70336;SHT31;57756;47.408;18.940;2023-06-10T14:35:51;25.71;69.94
70336;SHT31;57756;47.408;18.940;2023-06-10T14:38:17;25.44;71.29
70336;SHT31;57756;47.408;18.940;2023-06-10T14:40:43;25.24;72.74
70336;SHT31;57756;47.408;18.940;2023-06-10T14:43:08;24.95;74.34
70336;SHT31;57756;47.408;18.940;2023-06-10T14:45:39;24.99;75.71
70336;SHT31;57756;47.408;18.940;2023-06-10T14:48:05;24.41;76.98
70336;SHT31;57756;47.408;18.940;2023-06-10T14:50:31;24.42;78.96
70336;SHT31;57756;47.408;18.940;2023-06-10T14:52:58;24.55;78.32
70336;SHT31;57756;47.408;18.940;2023-06-10T14:55:23;24.48;78.63
70336;SHT31;57756;47.408;18.940;2023-06-10T14:57:49;24.48;78.19
70336;SHT31;57756;47.408;18.940;2023-06-10T15:00:15;24.67;77.23
70336;SHT31;57756;47.408;18.940;2023-06-10T15:02:42;24.69;76.59
70336;SHT31;57756;47.408;18.940;2023-06-10T15:05:08;24.71;76.34
70336;SHT31;57756;47.408;18.940;2023-06-10T15:07:34;24.85;75.07
70336;SHT31;57756;47.408;18.940;2023-06-10T15:09:59;24.88;75.37
70336;SHT31;57756;47.408;18.940;2023-06-10T15:12:25;25.10;74.76
70336;SHT31;57756;47.408;18.940;2023-06-10T15:14:50;25.13;71.46
70336;SHT31;57756;47.408;18.940;2023-06-10T15:17:16;25.23;71.54
70336;SHT31;57756;47.408;18.940;2023-06-10T15:19:42;25.31;73.79
70336;SHT31;57756;47.408;18.940;2023-06-10T15:22:07;25.41;72.02
70336;SHT31;57756;47.408;18.940;2023-06-10T15:24:33;25.44;72.57
70336;SHT31;57756;47.408;18.940;2023-06-10T15:26:58;25.50;71.53
70336;SHT31;57756;47.408;18.940;2023-06-10T15:29:24;25.41;70.93